Housenmaru — JD4060 — position and weather

sailwx.info

Track history (hours):
 
Tides and Currents Weather Stations Pressure Air Temp Water Temp Dewpoint Dewpoint Depression Visibility Wind Speed Wind Dir Waves Ship Positions

Housenmaru

Last reported at 2018-Jun-21 09:55 UTC. Time now 2018-Jun-21 11:56 UTC.
Position N 34°43' E 134°35'.

Length 58 m; draft 4.2 m.

Type: Cargo ship. MMSI: 431008226.

Date/timePositionNaut miles runAvg speedWind from/ knotsBaromVisibWave heightAir tempDewpointWater temp
2018-Jun-21 09:55N 34°43' E 134°35'25 0.6
2018-Jun-19 18:44N 34°23' E 134°19'310.6
2018-Jun-19 18:27N 34°22' E 134°22'510.5
2018-Jun-19 18:00N 34°20' E 134°27'1110.3
2018-Jun-19 16:53N 34°14' E 134°39'710.8
2018-Jun-19 16:14N 34°09' E 134°45'310.6
2018-Jun-19 16:00N 34°07' E 134°47'510.5
2018-Jun-19 15:29N 34°03' E 134°51'511.1
2018-Jun-19 15:01N 33°59' E 134°56'611.5
2018-Jun-19 14:30N 33°54' E 135°00'  
2018-Jun-13 17:33N 33°57' E 134°57'111.2
2018-Jun-13 17:30N 33°57' E 134°56'2811.3
2018-Jun-13 15:03N 34°17' E 134°34'1 9.0
2018-Jun-13 15:00N 34°17' E 134°33'510.2
2018-Jun-13 14:28N 34°19' E 134°27'  
Track history (hours):
 
Tides and Currents Weather Stations Pressure Air Temp Water Temp Dewpoint Dewpoint Depression Visibility Wind Speed Wind Dir Waves Ship Positions

Housenmaru

Last reported at 2018-Jun-21 09:55 UTC. Time now 2018-Jun-21 11:56 UTC.
Position N 34°43' E 134°35'.

Length 58 m; draft 4.2 m.

Type: Cargo ship. MMSI: 431008226.

Date/timePositionNaut miles runAvg speedWind from/ knotsBaromVisibWave heightAir tempDewpointWater temp
2018-Jun-21 09:55N 34°43' E 134°35'25 0.6
2018-Jun-19 18:44N 34°23' E 134°19'310.6
2018-Jun-19 18:27N 34°22' E 134°22'510.5
2018-Jun-19 18:00N 34°20' E 134°27'1110.3
2018-Jun-19 16:53N 34°14' E 134°39'710.8
2018-Jun-19 16:14N 34°09' E 134°45'310.6
2018-Jun-19 16:00N 34°07' E 134°47'510.5
2018-Jun-19 15:29N 34°03' E 134°51'511.1
2018-Jun-19 15:01N 33°59' E 134°56'611.5
2018-Jun-19 14:30N 33°54' E 135°00'  
2018-Jun-13 17:33N 33°57' E 134°57'111.2
2018-Jun-13 17:30N 33°57' E 134°56'2811.3
2018-Jun-13 15:03N 34°17' E 134°34'1 9.0
2018-Jun-13 15:00N 34°17' E 134°33'510.2
2018-Jun-13 14:28N 34°19' E 134°27'  

Dump ship's entire track history